Latest Weather Observations for Padthaway

IDS60801

Issued at 5:31 pm CDT Friday 27 February 2015 (issued every 30 minutes, with the page automatically refreshed every 10 minutes)

About weather observations | Map of weather stations | Latest weather observations for SA | Other Formats
Station Details ID: 026100 Name: PADTHAWAY SOUTH Lat: -36.65 Lon: 140.52 Height: 37.0 m
Data from the previous 72 hours. | See also: Recent months at Padthaway
Date/Time
CDT
Temp
°C
App
Temp
°C
Dew
Point
Rel
Hum
%
Delta-T
°C
Wind Press
QNH
hPa
Press
MSL
hPa
Rain
since 9 am
mm
Dir
 
Spd
km/h
Gust
km/h
Spd
kts
Gust
kts
27/05:30pm 28.6 26.9 12.5 37 9.4 WSW 13 28 7 15 - - 0.0
27/05:00pm 29.4 27.1 11.9 34 10.2 W 15 19 8 10 - - 0.0
27/04:30pm 29.9 28.0 11.9 33 10.5 WSW 13 20 7 11 - - 0.0
27/04:00pm 29.7 28.7 12.2 34 10.2 WSW 9 19 5 10 - - 0.0
27/03:30pm 30.1 30.2 11.6 32 10.7 WNW 2 17 1 9 - - 0.0
27/03:00pm 29.3 27.7 11.4 33 10.3 S 11 17 6 9 - - 0.0
27/02:30pm 28.7 27.2 10.4 32 10.4 SSW 9 17 5 9 - - 0.0
27/02:00pm 27.8 26.8 10.9 35 9.6 S 7 15 4 8 - - 0.0
27/01:30pm 27.4 25.9 10.6 35 9.5 WSW 9 13 5 7 - - 0.0
27/01:00pm 26.3 25.8 12.7 43 7.9 ENE 7 22 4 12 - - 0.0
27/12:30pm 25.7 24.9 12.9 45 7.4 NW 9 15 5 8 - - 0.0
27/12:00pm 25.0 25.2 12.9 47 7.0 N 4 11 2 6 - - 0.0
27/11:30am 24.0 23.3 13.2 50 6.3 NNE 9 15 5 8 - - 0.0
27/11:00am 23.5 23.1 13.1 52 6.0 NNE 7 15 4 8 - - 0.0
27/10:30am 22.6 21.9 13.1 55 5.5 NE 9 15 5 8 - - 0.0
27/10:00am 21.6 20.4 12.7 57 5.1 NE 11 17 6 9 - - 0.0
27/09:30am 20.6 19.0 12.8 61 4.4 NE 13 17 7 9 - - 0.0
27/09:00am 19.7 17.9 13.2 66 3.7 ENE 15 19 8 10 - - 0.0
27/08:30am 18.0 17.8 13.5 75 2.6 E 7 11 4 6 - - 0.0
27/08:00am 14.9 15.8 12.9 88 1.1 CALM 0 0 0 0 - - 0.0
27/07:30am 13.4 14.1 12.1 92 0.7 CALM 0 0 0 0 - - 0.0
27/07:00am 11.8 10.6 10.4 91 0.7 ESE 7 9 4 5 - - 0.0
27/06:30am 11.8 11.9 10.2 90 0.8 CALM 0 0 0 0 - - 0.0
27/06:00am 12.3 11.8 10.9 91 0.7 SSE 4 9 2 5 - - 0.0
27/05:30am 11.8 11.9 10.0 89 0.9 CALM 0 7 0 4 - - 0.0
27/05:00am 11.9 12.0 10.1 89 0.9 CALM 0 0 0 0 - - 0.0
27/04:30am 12.7 13.1 11.1 90 0.8 CALM 0 0 0 0 - - 0.0
27/04:00am 12.7 11.9 10.9 89 0.9 E 6 7 3 4 - - 0.0
27/03:30am 13.1 12.2 11.3 89 1.0 E 7 9 4 5 - - 0.0
27/03:00am 14.0 13.4 12.4 90 0.9 S 7 9 4 5 - - 0.0
27/02:30am 14.7 14.3 12.9 89 1.0 S 7 9 4 5 - - 0.0
27/02:00am 15.1 14.0 13.1 88 1.1 ESE 11 15 6 8 - - 0.0
27/01:30am 15.6 15.0 13.6 88 1.1 SSE 9 11 5 6 - - 0.0
27/01:00am 15.8 15.2 13.6 87 1.2 SSE 9 13 5 7 - - 0.0
27/12:30am 16.0 15.1 13.7 86 1.3 SSE 11 15 6 8 - - 0.0
27/12:00am 16.0 15.3 13.3 84 1.5 S 9 11 5 6 - - 0.0
 
Date/Time
CDT
Temp
°C
App
Temp
°C
Dew
Point
Rel
Hum
%
Delta-T
°C
Wind Press
QNH
hPa
Press
MSL
hPa
Rain
since 9 am
mm
Dir
 
Spd
km/h
Gust
km/h
Spd
kts
Gust
kts
26/11:30pm 16.5 15.7 12.8 79 2.1 S 9 13 5 7 - - 0.0
26/11:00pm 16.9 15.9 12.2 74 2.6 SW 9 13 5 7 - - 0.0
26/10:30pm 17.5 16.4 11.8 69 3.1 SSW 9 13 5 7 - - 0.0
26/10:00pm 18.5 17.3 11.6 64 3.8 S 9 15 5 8 - - 0.0
26/09:30pm 19.3 17.3 11.6 61 4.2 SSW 13 17 7 9 - - 0.0
26/09:00pm 20.0 18.5 12.0 60 4.5 SSW 11 20 6 11 - - 0.0
26/08:30pm 21.2 19.2 12.6 58 4.9 SSW 15 22 8 12 - - 0.0
26/08:00pm 22.1 20.4 12.4 54 5.5 SW 13 19 7 10 - - 0.0
26/07:30pm 23.6 21.9 12.6 50 6.3 SSW 13 17 7 9 - - 0.0
26/07:00pm 25.2 22.7 12.4 45 7.4 SW 17 22 9 12 - - 0.0
26/06:30pm 26.2 23.7 12.3 42 8.0 SSW 17 30 9 16 - - 0.0
26/06:00pm 27.0 24.4 11.9 39 8.7 SW 17 26 9 14 - - 0.0
26/05:30pm 27.7 25.3 12.5 39 8.9 SW 17 28 9 15 - - 0.0
26/05:00pm 27.6 24.7 12.8 40 8.7 SW 20 32 11 17 - - 0.0
26/04:30pm 28.2 25.2 12.1 37 9.3 SSW 19 33 10 18 - - 0.0
26/04:00pm 28.8 26.3 12.2 35 9.7 WSW 17 30 9 16 - - 0.0
26/03:30pm 28.7 25.6 12.2 36 9.6 SW 20 32 11 17 - - 0.0
26/03:00pm 27.8 24.8 11.8 37 9.2 WSW 19 30 10 16 - - 0.0
26/02:30pm 27.8 26.1 12.6 39 8.9 SW 13 24 7 13 - - 0.0
26/02:00pm 26.7 24.1 12.0 40 8.5 SW 17 24 9 13 - - 0.0
26/01:30pm 26.1 24.0 11.1 39 8.5 SSW 13 24 7 13 - - 0.0
26/01:00pm 25.1 23.2 10.6 40 8.1 WSW 11 20 6 11 - - 0.0
26/12:30pm 24.7 23.2 10.6 41 7.9 SW 9 20 5 11 - - 0.0
26/12:00pm 23.3 21.5 9.3 41 7.6 S 9 17 5 9 - - 0.0
26/11:30am 23.3 21.9 9.7 42 7.4 SSW 7 19 4 10 - - 0.0
26/11:00am 21.9 19.8 9.8 46 6.5 SSW 11 20 6 11 - - 0.0
26/10:30am 20.9 18.7 9.2 47 6.2 SSW 11 20 6 11 - - 0.0
26/10:00am 19.9 18.1 10.9 56 4.9 S 11 19 6 10 - - 0.0
26/09:30am 18.6 17.2 12.1 66 3.6 SSE 11 15 6 8 - - 0.0
26/09:00am 17.7 16.1 12.8 73 2.7 S 13 19 7 10 - - 0.0
26/08:30am 15.9 15.5 13.0 83 1.6 SSW 7 9 4 5 - - 0.0
26/08:00am 14.2 14.0 12.9 92 0.7 SW 6 7 3 4 - - 0.0
26/07:30am 14.0 13.6 12.9 93 0.6 WSW 7 11 4 6 - - 0.0
26/07:00am 13.0 12.7 11.6 91 0.7 W 4 7 2 4 - - 0.0
26/06:30am 14.0 14.8 12.7 92 0.7 CALM 0 6 0 3 - - 0.0
26/06:00am 14.5 13.7 13.0 91 0.8 S 9 13 5 7 - - 0.0
26/05:30am 14.5 14.0 12.7 89 1.0 SW 7 9 4 5 - - 0.0
26/05:00am 14.4 15.2 12.6 89 1.0 CALM 0 0 0 0 - - 0.0
26/04:30am 14.4 15.3 12.8 90 0.9 CALM 0 4 0 2 - - 0.0
26/04:00am 14.3 13.8 12.7 90 0.9 S 7 11 4 6 - - 0.0
26/03:30am 14.1 13.7 12.5 90 0.9 S 6 13 3 7 - - 0.0
26/03:00am 12.6 12.6 11.0 90 0.8 W 2 7 1 4 - - 0.0
26/02:30am 11.8 11.8 9.7 87 1.1 CALM 0 0 0 0 - - 0.0
26/02:00am 12.3 12.5 10.4 88 1.0 CALM 0 0 0 0 - - 0.0
26/01:30am 12.5 11.6 10.6 88 1.0 NE 6 9 3 5 - - 0.0
26/01:00am 12.5 12.6 10.2 86 1.2 CALM 0 6 0 3 - - 0.0
26/12:30am 13.7 13.7 11.0 84 1.4 SSW 2 7 1 4 - - 0.0
26/12:00am 14.2 13.3 11.2 82 1.6 SSW 7 11 4 6 - - 0.0
 
Date/Time
CDT
Temp
°C
App
Temp
°C
Dew
Point
Rel
Hum
%
Delta-T
°C
Wind Press
QNH
hPa
Press
MSL
hPa
Rain
since 9 am
mm
Dir
 
Spd
km/h
Gust
km/h
Spd
kts
Gust
kts
25/11:30pm 14.8 13.9 11.2 79 1.9 SSW 7 13 4 7 - - 0.0
25/11:00pm 14.9 13.8 10.7 76 2.2 SSW 7 7 4 4 - - 0.0
25/10:30pm 15.8 15.0 11.0 73 2.6 SSW 6 9 3 5 - - 0.0
25/10:00pm 16.6 15.8 11.1 70 3.0 SSW 6 9 3 5 - - 0.0
25/09:30pm 17.4 16.7 11.4 68 3.3 S 6 9 3 5 - - 0.0
25/09:00pm 18.4 16.8 11.7 65 3.7 SSW 11 17 6 9 - - 0.0
25/08:30pm 19.6 17.2 11.4 59 4.5 SW 15 22 8 12 - - 0.0
25/08:00pm 21.0 18.6 11.3 54 5.4 SW 15 22 8 12 - - 0.0
25/07:30pm 22.3 19.5 11.4 50 6.1 SW 17 26 9 14 - - 0.0
25/07:00pm 24.3 21.1 11.3 44 7.3 SSW 19 26 10 14 - - 0.0
25/06:30pm 26.1 24.1 8.6 33 9.5 SSW 9 15 5 8 - - 0.0
25/06:00pm 27.1 23.9 7.0 28 10.7 WSW 13 20 7 11 - - 0.0
25/05:30pm 27.0 24.0 7.5 29 10.4 WSW 13 19 7 10 - - 0.0
25/05:00pm 27.3 24.2 7.2 28 10.7 WSW 13 22 7 12 - - 0.0
25/04:30pm 27.1 24.2 8.0 30 10.3 SW 13 20 7 11 - - 0.0
25/04:00pm 26.7 24.2 8.2 31 10.0 S 11 24 6 13 - - 0.0
25/03:30pm 26.3 23.3 7.8 31 9.9 SSW 13 20 7 11 - - 0.0
25/03:00pm 26.0 23.2 8.5 33 9.5 SSW 13 19 7 10 - - 0.0
25/02:30pm 25.0 23.3 8.5 35 8.9 SSW 7 15 4 8 - - 0.0
25/02:00pm 25.4 23.9 8.4 34 9.1 SE 6 13 3 7 - - 0.0
25/01:30pm 23.5 20.8 7.2 35 8.5 SSW 11 17 6 9 - - 0.0
25/01:00pm 23.2 21.4 8.1 38 8.0 S 7 17 4 9 - - 0.0
25/12:30pm 22.1 19.1 7.9 40 7.4 SW 13 24 7 13 - - 0.0
25/12:00pm 21.2 19.1 9.8 48 6.1 S 11 19 6 10 - - 0.0
25/11:30am 21.1 18.8 10.3 50 5.9 SE 13 24 7 13 - - 0.0
25/11:00am 19.5 16.3 10.0 54 5.1 SE 17 28 9 15 - - 0.0
25/10:30am 18.4 15.1 9.7 57 4.6 SSE 17 26 9 14 - - 0.0
25/10:00am 17.7 14.3 9.3 58 4.4 SSE 17 22 9 12 - - 0.0
25/09:30am 15.5 12.4 9.0 65 3.3 SSE 15 24 8 13 - - 0.0
25/09:00am 13.8 10.8 7.6 66 3.1 SSE 13 17 7 9 - - 0.0
25/08:30am 11.7 9.3 7.2 74 2.2 SSE 9 13 5 7 - - 0.0
25/08:00am 9.7 7.6 5.9 77 1.7 ESE 6 9 3 5 - - 0.0
25/07:30am 7.4 6.4 5.4 87 0.9 CALM 0 0 0 0 - - 0.0
25/07:00am 5.8 4.4 3.6 86 0.9 CALM 0 0 0 0 - - 0.0
25/06:30am 6.0 4.3 4.0 87 0.9 ESE 2 7 1 4 - - 0.0
25/06:00am 6.0 3.3 3.8 86 0.9 ESE 7 9 4 5 - - 0.0
25/05:30am 6.4 4.0 4.2 86 0.9 ESE 6 9 3 5 - - 0.0
25/05:00am 6.7 4.1 4.4 85 1.0 ESE 7 9 4 5 - - 0.0
25/04:30am 6.8 5.5 3.9 82 1.2 CALM 0 6 0 3 - - 0.0
25/04:00am 7.4 6.2 4.4 81 1.3 CALM 0 0 0 0 - - 0.0
25/03:30am 8.0 5.5 4.9 81 1.4 SSE 7 7 4 4 - - 0.0
25/03:00am 8.6 5.9 5.5 81 1.4 SSE 9 11 5 6 - - 0.0
25/02:30am 9.8 7.7 5.8 76 1.8 SSE 6 9 3 5 - - 0.0
25/02:00am 10.4 7.8 6.2 75 2.0 SSE 9 13 5 7 - - 0.0
25/01:30am 11.4 8.1 6.3 71 2.4 SE 13 20 7 11 - - 0.0
25/01:00am 11.9 8.6 6.2 68 2.7 SE 13 17 7 9 - - 0.0
25/12:30am 12.8 8.3 6.2 64 3.1 SSE 19 26 10 14 - - 0.0
25/12:00am 13.3 8.8 6.2 62 3.4 SE 19 30 10 16 - - 0.0
 
Date/Time
CDT
Temp
°C
App
Temp
°C
Dew
Point
Rel
Hum
%
Delta-T
°C
Wind Press
QNH
hPa
Press
MSL
hPa
Rain
since 9 am
mm
Dir
 
Spd
km/h
Gust
km/h
Spd
kts
Gust
kts
24/11:30pm 13.9 9.1 5.8 58 3.8 SSE 20 28 11 15 - - 0.0
24/11:00pm 14.3 9.5 5.4 55 4.2 SSE 20 28 11 15 - - 0.0
24/10:30pm 15.1 10.2 5.3 52 4.6 SSE 20 28 11 15 - - 0.0
24/10:00pm 15.7 10.8 5.3 50 5.0 SSE 20 32 11 17 - - 0.0
24/09:30pm 16.5 11.3 5.5 48 5.3 SSE 22 30 12 16 - - 0.0
24/09:00pm 17.6 12.1 4.2 41 6.3 SSE 22 33 12 18 - - 0.0
24/08:30pm 18.3 12.5 4.5 40 6.6 SSE 24 35 13 19 - - 0.0
24/08:00pm 19.2 13.2 5.3 40 6.8 SSE 26 35 14 19 - - 0.0
24/07:30pm 20.2 13.8 5.4 38 7.3 SSE 28 37 15 20 - - 0.0
24/07:00pm 21.1 15.2 5.9 37 7.6 S 26 39 14 21 - - 0.0
24/06:30pm 21.9 15.6 5.8 35 8.1 S 28 39 15 21 - - 0.0
24/06:00pm 23.0 17.8 5.4 32 8.8 S 22 33 12 18 - - 0.0

Other Formats:

Comma delimited format used in spreadsheet applications
http://www.bom.gov.au/fwo/IDS60801/IDS60801.95823.axf

JavaScript Object Notation format (JSON) in row-major order
http://www.bom.gov.au/fwo/IDS60801/IDS60801.95823.json